createdAt,value
2022-10-08T04:00:25.672Z,6.50
2022-10-08T04:05:25.587Z,13.00
2022-10-08T04:10:25.537Z,8.00
2022-10-08T04:15:33.590Z,6.90
2022-10-08T04:20:25.423Z,7.50
2022-10-08T04:25:25.369Z,7.50
2022-10-08T04:30:25.318Z,6.10
2022-10-08T04:35:25.298Z,12.30
2022-10-08T04:40:25.210Z,12.60
2022-10-08T04:45:25.160Z,9.80
2022-10-08T04:50:25.107Z,6.20
2022-10-08T04:55:25.068Z,6.20
2022-10-08T05:00:24.993Z,8.60
2022-10-08T05:05:24.939Z,8.20
2022-10-08T05:10:24.885Z,6.90
2022-10-08T05:15:24.855Z,8.30
2022-10-08T05:20:24.803Z,9.70
2022-10-08T05:25:24.731Z,9.30
2022-10-08T05:30:24.677Z,7.60
2022-10-08T05:35:24.643Z,10.50
2022-10-08T05:40:24.569Z,9.30
2022-10-08T05:45:24.510Z,8.60
2022-10-08T05:50:24.461Z,13.20
2022-10-08T05:55:24.427Z,8.20
2022-10-08T06:00:24.354Z,10.60
2022-10-08T06:05:24.299Z,16.30
2022-10-08T06:10:24.251Z,13.50
2022-10-08T06:15:24.218Z,10.20
2022-10-08T06:20:27.430Z,11.20
2022-10-08T06:25:24.088Z,16.10
2022-10-08T06:30:24.034Z,9.50
2022-10-08T06:35:23.998Z,11.80
2022-10-08T06:40:23.929Z,12.00
2022-10-08T06:45:23.875Z,10.80
2022-10-08T06:50:23.824Z,10.70
2022-10-08T06:55:23.843Z,10.00
2022-10-08T07:00:23.719Z,12.00
2022-10-08T07:05:23.658Z,12.80
2022-10-08T07:10:23.610Z,10.90
2022-10-08T07:15:23.571Z,14.40
2022-10-08T07:20:23.511Z,10.80
2022-10-08T07:25:23.455Z,14.20
2022-10-08T07:30:23.410Z,13.50
2022-10-08T07:35:23.357Z,13.80
2022-10-08T07:40:23.289Z,12.30
2022-10-08T07:45:23.349Z,13.00
2022-10-08T07:50:23.184Z,11.50
2022-10-08T07:55:23.151Z,13.30
2022-10-08T08:00:26.129Z,13.80
2022-10-08T08:05:23.037Z,13.80
2022-10-08T08:10:22.958Z,13.70
2022-10-08T08:15:22.942Z,21.80
2022-10-08T08:20:22.867Z,14.60
2022-10-08T08:25:22.806Z,16.40
2022-10-08T08:30:22.754Z,18.10
2022-10-08T08:35:22.730Z,20.30
2022-10-08T08:40:22.649Z,17.50
2022-10-08T08:45:44.679Z,12.10
2022-10-08T08:50:23.583Z,17.20
2022-10-08T08:55:22.498Z,17.20
2022-10-08T09:00:22.434Z,16.00
2022-10-08T09:05:22.417Z,15.20
2022-10-08T09:10:22.319Z,15.90
2022-10-08T09:15:22.304Z,13.80
2022-10-08T09:20:22.356Z,10.50
2022-10-08T09:25:22.153Z,13.20
2022-10-08T09:30:22.122Z,15.10
2022-10-08T09:35:22.049Z,8.50
2022-10-08T09:40:21.984Z,7.50
2022-10-08T09:45:22.357Z,9.40
2022-10-08T09:50:21.891Z,6.00
2022-10-08T09:55:21.845Z,10.60
2022-10-08T10:00:21.769Z,8.90
2022-10-08T10:05:21.721Z,8.00
2022-10-08T10:10:21.666Z,9.90
2022-10-08T10:15:28.666Z,5.90
2022-10-08T10:20:21.554Z,6.20
2022-10-08T10:25:21.496Z,7.20
2022-10-08T10:30:21.447Z,6.60
2022-10-08T10:35:21.526Z,9.80
2022-10-08T10:40:21.335Z,10.90
2022-10-08T10:45:21.284Z,8.30
2022-10-08T10:50:21.227Z,7.90
2022-10-08T10:55:21.198Z,3.60
2022-10-08T11:00:21.107Z,4.70
2022-10-08T11:05:21.067Z,6.20
2022-10-08T11:10:21.012Z,6.70
2022-10-08T11:15:20.978Z,6.30
2022-10-08T11:20:20.901Z,4.50
2022-10-08T11:25:20.853Z,5.40
2022-10-08T11:30:20.793Z,4.80
2022-10-08T11:35:20.761Z,4.00
2022-10-08T11:40:20.670Z,2.80
2022-10-08T11:45:20.636Z,5.70
2022-10-08T11:50:20.588Z,4.20
2022-10-08T11:55:20.586Z,4.20
2022-10-08T12:00:20.538Z,3.90
2022-10-08T12:05:20.413Z,2.30
2022-10-08T12:10:20.357Z,4.70
2022-10-08T12:15:20.326Z,3.30
2022-10-08T12:20:20.249Z,3.80
2022-10-08T12:25:20.207Z,2.20
2022-10-08T12:30:20.143Z,2.10
2022-10-08T12:35:20.111Z,1.40
2022-10-08T12:40:20.039Z,1.60
2022-10-08T12:45:19.984Z,3.40
2022-10-08T12:50:19.923Z,2.90
2022-10-08T12:55:19.888Z,2.30
2022-10-08T13:00:19.889Z,3.60
2022-10-08T13:05:19.761Z,2.80
2022-10-08T13:10:19.707Z,3.70
2022-10-08T13:15:19.674Z,2.50
2022-10-08T13:20:19.601Z,5.60
2022-10-08T13:25:19.543Z,2.90
2022-10-08T13:30:19.492Z,5.20
2022-10-08T13:35:19.457Z,2.50
2022-10-08T13:40:19.387Z,3.40
2022-10-08T13:45:19.336Z,2.40
2022-10-08T13:50:19.278Z,2.90
2022-10-08T13:55:19.311Z,3.60
2022-10-08T14:00:19.169Z,3.80
2022-10-08T14:05:19.110Z,2.80
2022-10-08T14:10:19.055Z,2.10
2022-10-08T14:15:19.010Z,2.00
2022-10-08T14:20:18.953Z,3.10
2022-10-08T14:25:18.882Z,3.90
2022-10-08T14:30:18.844Z,2.00
2022-10-08T14:35:18.794Z,1.80
2022-10-08T14:40:18.736Z,2.60
2022-10-08T14:45:18.677Z,2.40
2022-10-08T14:50:18.628Z,2.70
2022-10-08T14:55:18.578Z,3.40
2022-10-08T15:00:18.520Z,2.00
2022-10-08T15:05:18.451Z,2.10
2022-10-08T15:10:18.534Z,2.90
2022-10-08T15:15:18.370Z,2.50
2022-10-08T15:20:18.313Z,3.20
2022-10-08T15:25:18.236Z,6.00
2022-10-08T15:30:18.255Z,2.60
2022-10-08T15:35:18.151Z,4.50
2022-10-08T15:40:18.097Z,2.50
2022-10-08T15:45:18.019Z,2.40
2022-10-08T15:50:17.978Z,8.70
2022-10-08T15:55:17.948Z,6.30
2022-10-08T16:00:17.855Z,5.00
2022-10-08T16:05:17.809Z,3.10
2022-10-08T16:10:17.764Z,3.30
2022-10-08T16:15:24.796Z,3.60
2022-10-08T16:20:17.633Z,4.50
2022-10-08T16:25:17.590Z,4.50
2022-10-08T16:30:17.547Z,2.20
2022-10-08T16:35:17.493Z,3.00
2022-10-08T16:40:17.426Z,2.10
2022-10-08T16:45:17.372Z,3.00
2022-10-08T16:50:17.302Z,4.50
2022-10-08T16:55:17.279Z,2.10
2022-10-08T17:00:17.217Z,3.90
2022-10-08T17:05:17.138Z,2.60
2022-10-08T17:10:17.098Z,4.10
2022-10-08T17:15:17.056Z,2.90
2022-10-08T17:20:17.000Z,2.20
2022-10-08T17:25:16.917Z,5.90
2022-10-08T17:30:16.882Z,4.70
2022-10-08T17:35:16.850Z,4.10
2022-10-08T17:40:16.759Z,2.50
2022-10-08T17:45:16.715Z,4.20
2022-10-08T17:50:16.672Z,3.20
2022-10-08T17:55:17.195Z,3.50
2022-10-08T18:00:16.556Z,3.70
2022-10-08T18:05:16.497Z,3.40
2022-10-08T18:10:16.433Z,3.30
2022-10-08T18:15:16.410Z,3.90
2022-10-08T18:20:16.374Z,4.10
2022-10-08T18:25:16.274Z,4.30
2022-10-08T18:30:16.238Z,5.70
2022-10-08T18:35:16.225Z,5.70
2022-10-08T18:40:16.116Z,5.90
2022-10-08T18:45:16.090Z,5.00
2022-10-08T18:50:16.017Z,11.00
2022-10-08T18:55:16.039Z,4.80
2022-10-08T19:00:15.903Z,6.20
2022-10-08T19:05:15.921Z,7.40
2022-10-08T19:10:15.818Z,8.30
2022-10-08T19:15:15.763Z,6.50
2022-10-08T19:20:15.708Z,7.20
2022-10-08T19:25:15.684Z,6.80
2022-10-08T19:30:15.585Z,9.00
2022-10-08T19:35:15.566Z,7.50
2022-10-08T19:40:15.501Z,11.20
2022-10-08T19:45:15.432Z,11.50
2022-10-08T19:50:15.387Z,13.80
2022-10-08T19:55:15.354Z,9.50
2022-10-08T20:00:15.267Z,11.30
2022-10-08T20:05:15.241Z,11.10
2022-10-08T20:10:15.186Z,10.00
2022-10-08T20:15:15.130Z,8.60
2022-10-08T20:20:32.244Z,8.50
2022-10-08T20:25:16.059Z,9.60
2022-10-08T20:30:14.948Z,12.40
2022-10-08T20:35:14.924Z,14.60
2022-10-08T20:40:14.866Z,11.20
2022-10-08T20:45:14.791Z,10.90
2022-10-08T20:50:14.750Z,9.60
2022-10-08T20:55:14.730Z,13.70
2022-10-08T21:00:14.628Z,11.40
2022-10-08T21:05:14.588Z,11.20
2022-10-08T21:10:14.550Z,10.30
2022-10-08T21:15:14.487Z,17.90
2022-10-08T21:20:14.428Z,9.30
2022-10-08T21:25:14.378Z,10.70
2022-10-08T21:30:14.308Z,10.40
2022-10-08T21:35:14.291Z,9.90
2022-10-08T21:40:14.211Z,10.20
2022-10-08T21:45:14.150Z,8.40
2022-10-08T21:50:14.101Z,12.10
2022-10-08T21:55:14.070Z,9.80
2022-10-08T22:00:13.998Z,11.60
2022-10-08T22:05:13.930Z,12.90
2022-10-08T22:10:13.884Z,10.50
2022-10-08T22:15:20.889Z,12.50
2022-10-08T22:20:13.772Z,7.90
2022-10-08T22:25:13.725Z,9.30
2022-10-08T22:30:13.687Z,9.30
2022-10-08T22:35:13.628Z,9.80
2022-10-08T22:40:13.577Z,9.90
2022-10-08T22:45:13.527Z,8.90
2022-10-08T22:50:13.446Z,9.90
2022-10-08T22:55:13.428Z,10.10
2022-10-08T23:00:13.360Z,10.40
2022-10-08T23:05:13.283Z,11.30
2022-10-08T23:10:13.244Z,10.30
2022-10-08T23:15:13.213Z,9.30
2022-10-08T23:20:13.126Z,9.40
2022-10-08T23:25:13.252Z,7.30
